Centralia, Missouri
Current Conditions -  °F | °C
As of 4:54 PM on Friday 19 Dec 2014 (Local Time) from KCOU Reporting Station
Overcast Overcast  
Wind Chill: 31°   Ceiling: 1300
Heat Index: 36°   Visibility: 8mi
Dew Point: 32°   Wind: 6mph
Humidity: 86%   Direction: 100°E
Pressure: 30.23"   Gusts: NA
Location:  39.21°N, 92.14°W
Report Text: KCOU 192254Z 10005KT 8SM OVC013 02/00 A3023 RMK AO2 SLP243 T00220000
Loading
Personal Weather Stations






























Interactive Weather Map New forecast layout! Learn more

10-Day Weather Forecast

Advertisements
Track Severe Weather on mobile